Time;durP1;ratioP1;P1;durP2;ratioP2;P2;SDS_P1;SDS_P2;PMS_P1;PMS_P2;Temp;Humidity;BMP_temperature;BMP_pressure;BME280_temperature;BME280_humidity;BME280_pressure;Samples;Min_cycle;Max_cycle;Signal;HPM_P1;HPM_P2
2022/03/25 00:01:03;;;;;;;40.17;20.05;;;;;;;6.07;78.79;101400.25;5014730;28;20034;-78
2022/03/25 00:03:29;;;;;;;35.90;19.27;;;;;;;6.10;78.38;101402.97;5014349;28;20025;-78
2022/03/25 00:05:54;;;;;;;43.03;21.35;;;;;;;6.00;79.33;101402.00;5013925;28;20049;-77
2022/03/25 00:08:19;;;;;;;45.42;21.10;;;;;;;5.93;80.26;101395.75;5012740;28;20442;-77
2022/03/25 00:10:45;;;;;;;43.63;22.05;;;;;;;5.74;79.85;101394.72;5012844;28;20022;-78
2022/03/25 00:13:10;;;;;;;37.75;20.88;;;;;;;5.77;80.00;101392.13;5014245;28;20025;-78
2022/03/25 00:15:36;;;;;;;40.95;20.20;;;;;;;5.83;80.47;101400.09;5012756;28;20131;-77
2022/03/25 00:18:01;;;;;;;40.00;21.00;;;;;;;5.83;79.96;101397.44;5017472;28;20061;-77
2022/03/25 00:20:27;;;;;;;38.28;20.27;;;;;;;5.79;79.78;101400.97;5012776;28;20026;-78
2022/03/25 00:22:52;;;;;;;40.78;21.48;;;;;;;5.76;80.25;101401.81;5013664;28;20505;-78
2022/03/25 00:25:17;;;;;;;40.58;19.85;;;;;;;5.77;80.68;101402.72;5013977;28;20021;-77
2022/03/25 00:27:42;;;;;;;39.30;20.17;;;;;;;5.74;80.28;101392.09;5013707;28;20026;-77
2022/03/25 00:30:08;;;;;;;45.25;22.48;;;;;;;5.60;80.33;101406.09;5013841;28;20044;-77
2022/03/25 00:32:35;;;;;;;44.28;20.95;;;;;;;5.47;82.00;101399.78;5012470;28;20049;-78
2022/03/25 00:35:00;;;;;;;44.47;21.58;;;;;;;5.33;82.18;101400.56;5013898;28;20033;-78
2022/03/25 00:37:26;;;;;;;43.97;21.50;;;;;;;5.28;82.45;101398.75;5013608;28;20033;-77
2022/03/25 00:39:52;;;;;;;40.22;21.67;;;;;;;5.25;83.32;101389.00;5013610;28;20426;-78
2022/03/25 00:42:17;;;;;;;42.78;20.23;;;;;;;5.28;84.60;101385.50;5013562;28;20026;-78
2022/03/25 00:44:44;;;;;;;45.15;21.85;;;;;;;5.21;83.94;101396.03;5013706;28;20024;-78
2022/03/25 00:47:10;;;;;;;44.15;22.02;;;;;;;5.21;84.51;101388.06;5013565;28;20034;-78
2022/03/25 00:49:35;;;;;;;41.47;21.17;;;;;;;5.08;84.56;101391.47;5013851;28;20026;-77
2022/03/25 00:52:00;;;;;;;41.10;21.63;;;;;;;5.10;84.58;101389.75;5012272;28;20068;-78
2022/03/25 00:54:27;;;;;;;42.28;21.23;;;;;;;5.11;85.96;101381.81;5013473;28;20018;-77
2022/03/25 00:56:52;;;;;;;46.58;22.80;;;;;;;5.03;85.04;101389.66;5013981;28;20081;-77
2022/03/25 00:59:17;;;;;;;43.45;21.98;;;;;;;5.03;85.35;101380.81;5013575;28;20038;-78
2022/03/25 01:01:43;;;;;;;41.70;21.52;;;;;;;4.97;86.10;101388.72;5013318;28;20030;-77
2022/03/25 01:04:09;;;;;;;38.70;21.67;;;;;;;4.95;86.57;101393.13;5013856;28;20112;-78
2022/03/25 01:06:35;;;;;;;42.95;22.45;;;;;;;4.80;87.89;101392.94;5016123;28;20444;-78
2022/03/25 01:09:05;;;;;;;45.35;23.95;;;;;;;4.67;89.08;101396.28;5017147;28;20026;-78
2022/03/25 01:11:31;;;;;;;47.25;24.27;;;;;;;4.57;90.00;101390.91;5017283;28;20021;-78
2022/03/25 01:13:58;;;;;;;41.88;22.38;;;;;;;4.51;90.58;101390.81;5017511;28;20056;-78
2022/03/25 01:16:24;;;;;;;42.80;22.77;;;;;;;4.40;90.07;101387.16;5015789;28;20022;-77
2022/03/25 01:18:49;;;;;;;44.08;23.00;;;;;;;4.40;91.94;101382.75;5015851;28;20071;-78
2022/03/25 01:21:16;;;;;;;40.75;22.27;;;;;;;4.47;91.64;101391.66;5017300;28;20543;-77
2022/03/25 01:23:41;;;;;;;41.40;21.27;;;;;;;4.48;91.60;101390.78;5017344;28;20036;-78
2022/03/25 01:26:07;;;;;;;40.55;22.05;;;;;;;4.55;93.38;101392.66;5017025;28;20109;-78
2022/03/25 01:28:34;;;;;;;41.20;21.10;;;;;;;4.59;92.52;101388.25;5015703;28;20026;-77
2022/03/25 01:31:03;;;;;;;40.42;21.17;;;;;;;4.57;91.94;101390.91;5016931;28;20105;-77
2022/03/25 01:33:30;;;;;;;41.95;20.30;;;;;;;4.61;91.93;101383.91;5016956;28;20025;-77
2022/03/25 01:35:58;;;;;;;41.22;21.85;;;;;;;4.63;92.35;101397.13;5015478;28;20506;-77
2022/03/25 01:38:25;;;;;;;44.35;22.52;;;;;;;4.62;92.03;101392.69;5015530;28;20108;-77
2022/03/25 01:40:51;;;;;;;40.75;19.83;;;;;;;4.63;91.66;101390.09;5015529;28;20026;-77
2022/03/25 01:43:17;;;;;;;44.95;21.20;;;;;;;4.63;91.60;101389.19;5016663;28;20080;-78
2022/03/25 01:45:42;;;;;;;39.88;21.75;;;;;;;4.60;91.82;101384.75;5015324;28;20026;-78
2022/03/25 01:48:13;;;;;;;42.08;21.50;;;;;;;4.58;92.47;101382.09;5016880;28;20030;-77
2022/03/25 01:50:42;;;;;;;37.95;20.83;;;;;;;4.63;92.65;101390.09;5016858;28;20537;-78
2022/03/25 01:53:19;;;;;;;44.67;22.33;;;;;;;4.57;91.54;101385.59;5015283;28;20022;-77
2022/03/25 01:55:56;;;;;;;38.80;20.80;;;;;;;4.55;91.92;101383.81;5016625;28;20025;-78
2022/03/25 01:58:24;;;;;;;40.22;21.33;;;;;;;4.54;93.58;101388.22;5016409;28;20032;-78
2022/03/25 02:00:50;;;;;;;45.63;23.23;;;;;;;4.41;93.03;101388.91;5015076;28;20026;-78
2022/03/25 02:03:16;;;;;;;42.97;22.83;;;;;;;4.35;93.91;101390.63;5015026;28;20033;-78
2022/03/25 02:05:43;;;;;;;46.35;23.42;;;;;;;4.31;94.91;101394.06;5016312;28;20483;-78
2022/03/25 02:08:08;;;;;;;47.60;22.30;;;;;;;4.36;94.63;101400.31;5016218;28;20030;-78
2022/03/25 02:10:34;;;;;;;45.25;22.38;;;;;;;4.40;94.60;101395.09;5016756;28;20021;-77
2022/03/25 02:12:59;;;;;;;42.03;22.42;;;;;;;4.36;95.06;101397.69;5015122;28;20018;-77
2022/03/25 02:15:32;;;;;;;40.72;20.52;;;;;;;4.27;95.06;101391.38;5015619;28;20069;-77
2022/03/25 02:18:01;;;;;;;45.55;22.25;;;;;;;4.18;96.41;101400.06;5014827;28;20021;-78
2022/03/25 02:20:27;;;;;;;40.88;22.60;;;;;;;3.93;97.56;101397.94;5015963;28;20030;-78
2022/03/25 02:22:52;;;;;;;43.00;21.90;;;;;;;3.88;97.87;101396.97;5016086;28;20022;-78
2022/03/25 02:25:20;;;;;;;48.25;22.98;;;;;;;3.76;100.00;101401.19;5016074;28;20029;-78
2022/03/25 02:27:47;;;;;;;44.03;22.75;;;;;;;3.69;100.00;101397.56;5014579;28;20510;-78
2022/03/25 02:30:12;;;;;;;43.63;21.25;;;;;;;3.72;100.00;101399.38;5015796;28;20033;-78
2022/03/25 02:32:39;;;;;;;45.20;22.85;;;;;;;3.73;100.00;101394.97;5016096;28;20139;-78
2022/03/25 02:35:05;;;;;;;45.60;22.30;;;;;;;3.69;100.00;101394.94;5015835;28;20453;-78
2022/03/25 02:37:31;;;;;;;48.17;23.38;;;;;;;3.68;100.00;101403.72;5015995;28;20037;-78
2022/03/25 02:39:56;;;;;;;45.60;23.65;;;;;;;3.66;100.00;101394.88;5015973;28;20021;-78
2022/03/25 02:42:21;;;;;;;43.42;23.00;;;;;;;3.62;100.00;101403.63;5015476;28;20109;-78
2022/03/25 02:44:48;;;;;;;41.20;21.75;;;;;;;3.73;100.00;101400.25;5043072;22;20561;-74
2022/03/25 02:47:14;;;;;;;45.35;22.83;;;;;;;3.74;100.00;101392.34;5035101;28;20022;-74
2022/03/25 02:49:40;;;;;;;43.47;21.50;;;;;;;3.78;100.00;101398.59;5035004;28;20021;-73
2022/03/25 02:52:05;;;;;;;42.17;22.50;;;;;;;3.77;100.00;101397.69;5034983;28;20104;-74
2022/03/25 02:54:30;;;;;;;44.63;22.95;;;;;;;3.73;100.00;101389.69;5034889;28;20033;-74
2022/03/25 02:56:58;;;;;;;39.00;22.23;;;;;;;3.72;100.00;101387.91;5033724;28;20033;-73
2022/03/25 02:59:25;;;;;;;38.58;21.40;;;;;;;3.68;100.00;101390.53;5034867;28;20021;-74
2022/03/25 03:01:50;;;;;;;41.75;22.15;;;;;;;3.66;100.00;101391.38;5034689;28;20151;-74
2022/03/25 03:04:16;;;;;;;48.08;23.55;;;;;;;3.55;100.00;101396.44;5033394;28;20112;-72
2022/03/25 03:06:41;;;;;;;49.40;25.88;;;;;;;3.55;100.00;101404.38;5033438;28;20398;-73
2022/03/25 03:09:06;;;;;;;49.70;26.08;;;;;;;3.60;100.00;101407.09;5034789;28;20025;-73
2022/03/25 03:11:32;;;;;;;54.30;27.35;;;;;;;3.56;100.00;101398.22;5034672;28;20405;-73
2022/03/25 03:13:58;;;;;;;58.45;26.38;;;;;;;3.49;100.00;101404.25;5033230;28;20455;-73
2022/03/25 03:16:23;;;;;;;48.00;25.17;;;;;;;3.53;100.00;101395.53;5034594;28;20036;-73
2022/03/25 03:18:49;;;;;;;48.30;24.95;;;;;;;3.57;100.00;101397.38;5033302;28;20100;-73
2022/03/25 03:21:14;;;;;;;46.70;25.48;;;;;;;3.58;100.00;101402.66;5033303;28;20449;-73
2022/03/25 03:23:39;;;;;;;46.85;24.00;;;;;;;3.57;100.00;101400.91;5033057;28;20022;-73
2022/03/25 03:26:05;;;;;;;50.75;24.52;;;;;;;3.58;100.00;101407.09;5032251;28;20025;-73
2022/03/25 03:28:31;;;;;;;48.75;23.60;;;;;;;3.52;100.00;101399.94;5034308;28;20536;-73
2022/03/25 03:30:56;;;;;;;50.35;25.08;;;;;;;3.50;100.00;101398.13;5034391;28;20446;-73
2022/03/25 03:33:23;;;;;;;40.83;23.60;;;;;;;3.58;100.00;101399.16;5034382;28;20017;-73
2022/03/25 03:35:48;;;;;;;42.40;23.80;;;;;;;3.58;100.00;101397.38;5034478;28;20030;-73
2022/03/25 03:38:13;;;;;;;47.33;23.35;;;;;;;3.56;100.00;101396.47;5034215;28;20025;-73
2022/03/25 03:40:39;;;;;;;47.50;23.60;;;;;;;3.63;100.00;101392.19;5034410;28;20551;-73
2022/03/25 03:43:04;;;;;;;44.22;23.25;;;;;;;3.54;100.00;101399.94;5034076;28;20082;-73
2022/03/25 03:45:32;;;;;;;40.42;22.40;;;;;;;3.42;100.00;101400.63;5033991;28;20084;-73
2022/03/25 03:47:57;;;;;;;38.78;21.70;;;;;;;3.33;100.00;101398.69;5032769;28;20474;-73
2022/03/25 03:50:24;;;;;;;42.80;21.98;;;;;;;3.31;100.00;101400.44;5032632;28;20059;-73
2022/03/25 03:52:50;;;;;;;44.90;20.98;;;;;;;3.21;100.00;101397.63;5032578;28;20029;-73
2022/03/25 03:55:15;;;;;;;39.42;20.95;;;;;;;3.14;100.00;101393.09;5033763;28;20029;-73
2022/03/25 03:57:41;;;;;;;39.45;21.27;;;;;;;3.05;100.00;101400.81;5033773;28;20025;-73
2022/03/25 04:00:12;;;;;;;44.25;22.58;;;;;;;3.03;100.00;101392.00;5033742;28;20029;-73
2022/03/25 04:02:37;;;;;;;45.40;22.30;;;;;;;2.95;100.00;101405.94;5032387;28;20091;-73
2022/03/25 04:05:04;;;;;;;46.90;23.48;;;;;;;2.91;100.00;101398.81;5033547;28;20025;-73
2022/03/25 04:07:30;;;;;;;45.58;23.45;;;;;;;2.84;100.00;101403.06;5032309;28;20021;-73
2022/03/25 04:09:56;;;;;;;45.72;23.05;;;;;;;2.77;100.00;101403.81;5033834;28;20021;-73
2022/03/25 04:12:21;;;;;;;39.50;22.98;;;;;;;2.71;100.00;101396.66;5033512;28;20068;-73
2022/03/25 04:14:47;;;;;;;46.90;23.98;;;;;;;2.69;100.00;101398.38;5032219;28;20390;-73
2022/03/25 04:17:13;;;;;;;44.75;24.20;;;;;;;2.68;100.00;101404.53;5032219;28;20021;-73
2022/03/25 04:19:39;;;;;;;45.42;23.70;;;;;;;2.69;100.00;101406.28;5033445;28;20029;-73
2022/03/25 04:22:04;;;;;;;45.10;23.98;;;;;;;2.63;100.00;101408.81;5033299;28;20029;-74
2022/03/25 04:24:29;;;;;;;53.30;25.38;;;;;;;2.63;100.00;101400.91;5032083;28;20021;-74
2022/03/25 04:26:55;;;;;;;54.28;26.80;;;;;;;2.65;100.00;101407.09;5033527;28;20056;-74
2022/03/25 04:29:21;;;;;;;48.75;26.35;;;;;;;2.72;100.00;101414.28;5033312;28;20100;-73
2022/03/25 04:31:46;;;;;;;47.97;25.52;;;;;;;2.65;100.00;101408.00;5031991;28;20017;-73
2022/03/25 04:34:12;;;;;;;51.13;26.92;;;;;;;2.68;100.00;101410.66;5033107;28;20104;-73
2022/03/25 04:36:37;;;;;;;55.65;27.20;;;;;;;2.64;100.00;101415.84;5033772;28;20034;-74
2022/03/25 04:39:02;;;;;;;53.97;27.48;;;;;;;2.64;100.00;101416.75;5031746;28;20053;-74
2022/03/25 04:41:28;;;;;;;49.00;27.38;;;;;;;2.66;100.00;101411.50;5033421;28;20028;-73
2022/03/25 04:43:53;;;;;;;46.33;24.90;;;;;;;2.70;100.00;101415.09;5032982;28;20053;-73
2022/03/25 04:46:18;;;;;;;45.72;24.55;;;;;;;2.70;100.00;101418.63;5033120;28;20393;-73
2022/03/25 04:48:44;;;;;;;48.47;25.63;;;;;;;2.66;100.00;101414.13;5033401;28;20084;-73
2022/03/25 04:51:09;;;;;;;46.05;25.60;;;;;;;2.64;100.00;101411.47;5033092;28;20040;-74
2022/03/25 04:53:35;;;;;;;50.72;26.13;;;;;;;2.63;100.00;101417.59;5031787;28;20017;-73
2022/03/25 04:56:01;;;;;;;50.10;25.27;;;;;;;2.67;100.00;101415.94;5033036;28;20049;-73
2022/03/25 04:58:26;;;;;;;51.95;26.30;;;;;;;2.66;100.00;101416.78;5032935;28;20075;-73
2022/03/25 05:00:52;;;;;;;50.28;26.00;;;;;;;2.67;100.00;101414.19;5031690;28;20021;-73
2022/03/25 05:03:19;;;;;;;49.90;26.20;;;;;;;2.64;100.00;101410.56;5032982;28;20025;-72
2022/03/25 05:05:45;;;;;;;55.92;25.73;;;;;;;2.64;100.00;101421.13;5032989;28;20032;-73
2022/03/25 05:08:10;;;;;;;51.47;24.98;;;;;;;2.62;100.00;101417.56;5032994;28;20021;-73
2022/03/25 05:10:35;;;;;;;48.17;26.75;;;;;;;2.63;100.00;101416.72;5033114;28;20029;-73
2022/03/25 05:13:01;;;;;;;49.95;25.55;;;;;;;2.53;100.00;101419.16;5033309;28;20024;-73
2022/03/25 05:15:26;;;;;;;46.50;24.95;;;;;;;2.54;100.00;101420.03;5032802;28;20040;-73
2022/03/25 05:17:52;;;;;;;48.88;26.10;;;;;;;2.53;100.00;101411.25;5032930;28;20040;-73
2022/03/25 05:20:20;;;;;;;49.35;26.42;;;;;;;2.53;100.00;101420.88;5032939;28;20167;-73
2022/03/25 05:22:47;;;;;;;51.25;25.92;;;;;;;2.52;100.00;101424.41;5032747;28;20029;-73
2022/03/25 05:25:12;;;;;;;54.97;27.17;;;;;;;2.51;100.00;101423.50;5032905;28;20032;-74
2022/03/25 05:27:47;;;;;;;53.70;25.23;;;;;;;2.52;100.00;101420.03;5032778;28;20022;-73
2022/03/25 05:30:14;;;;;;;46.58;24.90;;;;;;;2.50;100.00;101426.97;5031433;28;20027;-73
2022/03/25 05:32:41;;;;;;;52.88;26.48;;;;;;;2.49;100.00;101427.84;5033115;28;20053;-74
2022/03/25 05:35:07;;;;;;;49.33;26.23;;;;;;;2.43;100.00;101435.63;5032870;28;20497;-74
2022/03/25 05:37:34;;;;;;;53.97;28.42;;;;;;;2.38;100.00;101432.00;5031581;28;20116;-75
2022/03/25 05:39:59;;;;;;;58.97;27.23;;;;;;;2.35;100.00;101432.81;5031424;28;20061;-74
2022/03/25 05:42:25;;;;;;;56.90;27.50;;;;;;;2.34;100.00;101434.56;5032518;28;20061;-73
2022/03/25 05:44:50;;;;;;;50.55;26.02;;;;;;;2.33;100.00;101432.78;5031106;28;20029;-73
2022/03/25 05:47:16;;;;;;;58.03;26.73;;;;;;;2.36;100.00;101436.34;5031274;28;20512;-73
2022/03/25 05:49:41;;;;;;;55.00;27.48;;;;;;;2.45;100.00;101436.53;5033428;28;20029;-73
2022/03/25 05:52:08;;;;;;;50.60;25.98;;;;;;;2.42;100.00;101439.13;5036387;28;20024;-73
2022/03/25 05:54:33;;;;;;;53.20;27.88;;;;;;;2.44;100.00;101445.31;5036097;28;20025;-73
2022/03/25 05:56:58;;;;;;;55.80;28.08;;;;;;;2.43;100.00;101443.53;5036076;28;20068;-73
2022/03/25 05:59:24;;;;;;;52.97;27.38;;;;;;;2.48;100.00;101444.53;5036358;28;20120;-73
2022/03/25 06:01:49;;;;;;;47.53;26.05;;;;;;;2.45;100.00;101452.34;5036455;28;20030;-73
2022/03/25 06:04:14;;;;;;;49.47;27.23;;;;;;;2.47;100.00;101453.31;5035862;28;20164;-74
2022/03/25 06:06:39;;;;;;;50.38;27.42;;;;;;;2.50;100.00;101456.00;5034897;28;20025;-73
2022/03/25 06:09:05;;;;;;;57.83;27.98;;;;;;;2.55;100.00;101453.47;5036029;28;20021;-73
2022/03/25 06:11:30;;;;;;;53.72;28.95;;;;;;;2.59;100.00;101454.41;5035897;28;20072;-73
2022/03/25 06:13:55;;;;;;;58.72;30.10;;;;;;;2.63;100.00;101461.56;5035748;28;20492;-73
2022/03/25 06:16:21;;;;;;;58.25;30.73;;;;;;;2.69;100.00;101459.03;5035681;28;20036;-74
2022/03/25 06:18:46;;;;;;;62.13;30.90;;;;;;;2.76;100.00;101458.31;5035651;28;20072;-74
2022/03/25 06:21:12;;;;;;;56.38;28.95;;;;;;;2.84;100.00;101466.38;5035661;28;20021;-74
2022/03/25 06:23:37;;;;;;;55.97;28.95;;;;;;;2.90;100.00;101465.63;5035319;28;20026;-73
2022/03/25 06:26:05;;;;;;;54.08;28.38;;;;;;;2.96;100.00;101465.78;5035432;28;20108;-74
2022/03/25 06:28:31;;;;;;;52.22;28.45;;;;;;;3.02;100.00;101467.63;5035472;28;20098;-74
2022/03/25 06:30:56;;;;;;;52.17;28.27;;;;;;;3.03;100.00;101464.13;5035403;28;20025;-74
2022/03/25 06:33:22;;;;;;;59.03;29.00;;;;;;;3.10;100.00;101473.06;5035292;28;20025;-73
2022/03/25 06:35:48;;;;;;;49.67;25.50;;;;;;;3.17;100.00;101474.97;5035281;28;20034;-74
2022/03/25 06:38:14;;;;;;;47.60;22.95;;;;;;;3.22;100.00;101475.94;5035275;28;20030;-74
2022/03/25 06:40:39;;;;;;;41.97;23.27;;;;;;;3.30;100.00;101473.44;5035216;28;20037;-74
2022/03/25 06:43:05;;;;;;;46.75;25.38;;;;;;;3.34;100.00;101477.97;5034979;28;20217;-74
2022/03/25 06:45:31;;;;;;;44.75;24.50;;;;;;;3.37;100.00;101477.13;5035069;28;20032;-74
2022/03/25 06:47:57;;;;;;;48.08;25.73;;;;;;;3.39;100.00;101478.03;5035080;28;20104;-74
2022/03/25 06:50:24;;;;;;;47.13;25.23;;;;;;;3.48;100.00;101484.38;5034998;28;20453;-74
2022/03/25 06:52:50;;;;;;;53.13;27.63;;;;;;;3.44;100.00;101479.03;5033557;28;20471;-74
2022/03/25 06:55:16;;;;;;;47.42;26.85;;;;;;;3.51;100.00;101487.03;5034645;28;20048;-74
2022/03/25 06:57:42;;;;;;;54.65;27.08;;;;;;;3.60;100.00;101496.91;5033557;28;20063;-74
2022/03/25 07:00:12;;;;;;;55.97;27.23;;;;;;;3.66;100.00;101486.47;5034829;28;20029;-74
2022/03/25 07:02:42;;;;;;;48.63;26.30;;;;;;;3.58;100.00;101492.47;5034625;28;20040;-74
2022/03/25 07:05:10;;;;;;;51.25;27.45;;;;;;;3.61;100.00;101491.63;5033406;28;20550;-74
2022/03/25 07:07:37;;;;;;;56.75;29.88;;;;;;;3.70;100.00;101488.28;5034946;28;20029;-74
2022/03/25 07:10:03;;;;;;;57.03;28.48;;;;;;;3.83;100.00;101499.97;5033316;28;20032;-73
2022/03/25 07:12:29;;;;;;;49.15;27.48;;;;;;;3.90;100.00;101509.78;5033357;28;20071;-73
2022/03/25 07:14:54;;;;;;;51.50;29.00;;;;;;;3.99;100.00;101508.16;5034511;28;20433;-74
2022/03/25 07:17:20;;;;;;;49.72;28.42;;;;;;;4.05;100.00;101513.53;5034504;28;20029;-74
2022/03/25 07:19:45;;;;;;;51.40;28.48;;;;;;;4.13;100.00;101509.28;5034747;28;20501;-74
2022/03/25 07:22:10;;;;;;;54.65;28.02;;;;;;;4.17;100.00;101511.97;5034353;28;20025;-74
2022/03/25 07:24:35;;;;;;;51.65;27.40;;;;;;;4.19;100.00;101508.50;5034272;28;20506;-74
2022/03/25 07:27:01;;;;;;;50.22;28.17;;;;;;;4.32;100.00;101514.88;5033113;28;20032;-74
2022/03/25 07:29:26;;;;;;;57.70;28.50;;;;;;;4.41;100.00;101515.84;5033070;28;20029;-74
2022/03/25 07:31:51;;;;;;;57.20;27.98;;;;;;;4.47;100.00;101523.91;5034252;28;20540;-74
2022/03/25 07:34:17;;;;;;;53.90;26.80;;;;;;;4.54;100.00;101523.13;5034129;28;20036;-74
2022/03/25 07:36:42;;;;;;;52.22;27.90;;;;;;;4.64;100.00;101531.22;5034212;28;20027;-74
2022/03/25 07:39:07;;;;;;;49.35;24.35;;;;;;;4.75;100.00;101537.53;5034111;28;20029;-74
2022/03/25 07:41:33;;;;;;;46.35;25.73;;;;;;;4.91;100.00;101537.75;5034616;28;20025;-74
2022/03/25 07:43:58;;;;;;;58.08;27.98;;;;;;;4.94;100.00;101540.44;5032486;28;20032;-74
2022/03/25 07:46:23;;;;;;;48.60;26.88;;;;;;;5.07;100.00;101549.44;5034233;28;20025;-74
2022/03/25 07:48:49;;;;;;;49.55;26.13;;;;;;;5.19;100.00;101551.34;5034202;28;20021;-74
2022/03/25 07:51:15;;;;;;;49.03;26.50;;;;;;;5.26;100.00;101554.97;5032591;28;20079;-74
2022/03/25 07:53:40;;;;;;;51.88;26.42;;;;;;;5.39;100.00;101545.41;5034067;28;20057;-74
2022/03/25 07:56:05;;;;;;;45.38;25.17;;;;;;;5.44;100.00;101554.31;5033813;28;20025;-74
2022/03/25 07:58:31;;;;;;;48.45;26.00;;;;;;;5.59;100.00;101552.72;5033832;28;20044;-74
2022/03/25 08:00:56;;;;;;;53.60;26.35;;;;;;;5.68;100.00;101557.22;5033739;28;20022;-74
2022/03/25 08:03:22;;;;;;;49.65;25.35;;;;;;;5.76;100.00;101565.25;5033498;28;20060;-74
2022/03/25 08:05:48;;;;;;;49.08;25.10;;;;;;;5.90;100.00;101563.63;5033623;28;20398;-74
2022/03/25 08:08:15;;;;;;;43.83;24.75;;;;;;;6.07;100.00;101564.69;5033577;28;20021;-74
2022/03/25 08:10:40;;;;;;;47.05;24.15;;;;;;;6.21;100.00;101563.06;5033555;28;20022;-74
2022/03/25 08:13:07;;;;;;;45.53;24.90;;;;;;;6.29;100.00;101560.47;5033110;28;20059;-74
2022/03/25 08:15:33;;;;;;;45.22;24.83;;;;;;;6.41;100.00;101580.03;5033680;28;20048;-74
2022/03/25 08:18:03;;;;;;;56.40;27.48;;;;;;;6.56;100.00;101579.28;5032340;28;20390;-74
2022/03/25 08:20:41;;;;;;;45.60;24.13;;;;;;;6.70;97.24;101571.44;5032188;28;20398;-74
2022/03/25 08:27:48;;;;;;;46.72;24.25;;;;;;;6.84;97.92;101578.56;5033316;28;20025;-74
2022/03/25 08:28:46;;;;;;;50.05;26.08;;;;;;;7.01;96.77;101584.88;5012352;28;20049;-74
2022/03/25 08:31:11;;;;;;;47.72;25.42;;;;;;;7.13;95.36;101580.53;5032027;28;20025;-74
2022/03/25 08:33:37;;;;;;;47.65;24.55;;;;;;;7.25;92.32;101583.22;5031877;28;20111;-74
2022/03/25 08:36:02;;;;;;;51.05;25.58;;;;;;;7.38;90.97;101580.63;5033201;28;20079;-74
2022/03/25 08:38:28;;;;;;;53.53;26.50;;;;;;;7.55;91.62;101587.78;5033156;28;20505;-74
2022/03/25 08:40:53;;;;;;;56.38;29.30;;;;;;;7.73;91.95;101586.06;5033388;28;20021;-75
2022/03/25 08:43:18;;;;;;;44.50;24.00;;;;;;;7.88;90.69;101591.44;5074112;22;20033;-81
2022/03/25 08:45:43;;;;;;;41.30;23.77;;;;;;;7.97;89.60;101589.66;5038454;28;20041;-84
2022/03/25 08:48:10;;;;;;;48.28;24.02;;;;;;;8.07;88.59;101586.13;5040034;28;20097;-84
2022/03/25 08:50:36;;;;;;;47.63;23.67;;;;;;;8.13;88.94;101596.78;5038289;28;20112;-84
2022/03/25 08:53:01;;;;;;;39.63;23.20;;;;;;;8.29;86.66;101596.81;5039860;28;20061;-83
2022/03/25 08:55:26;;;;;;;48.67;22.35;;;;;;;8.37;85.31;101595.03;5039144;28;20063;-83
2022/03/25 08:57:51;;;;;;;40.92;21.83;;;;;;;8.43;84.72;101596.78;5039052;28;20024;-83
2022/03/25 09:00:19;;;;;;;38.55;22.48;;;;;;;8.66;82.41;101603.06;5039766;28;20036;-84
2022/03/25 09:02:46;;;;;;;46.80;20.80;;;;;;;8.81;80.34;101599.50;5041057;28;20030;-84
2022/03/25 09:05:12;;;;;;;42.33;20.77;;;;;;;9.03;80.47;101599.44;5043378;28;20022;-84
2022/03/25 09:07:38;;;;;;;37.72;20.88;;;;;;;9.30;76.53;101607.38;5044334;28;20409;-84
2022/03/25 09:10:05;;;;;;;36.65;19.90;;;;;;;9.43;77.52;101598.41;5043068;28;20022;-84
2022/03/25 09:12:30;;;;;;;38.05;19.83;;;;;;;9.49;75.10;101602.81;5043126;28;20026;-84
2022/03/25 09:14:56;;;;;;;35.60;19.58;;;;;;;9.64;75.15;101601.00;5034454;28;20390;-83
2022/03/25 09:17:21;;;;;;;34.28;19.05;;;;;;;9.95;73.29;101601.69;5035619;28;20037;-83
2022/03/25 09:19:47;;;;;;;34.75;18.92;;;;;;;10.21;72.63;101606.88;5035733;28;20021;-81
2022/03/25 09:22:12;;;;;;;36.70;19.55;;;;;;;10.37;70.95;101605.88;5036326;28;20026;-84
2022/03/25 09:24:37;;;;;;;37.55;19.65;;;;;;;10.49;71.13;101601.31;5039509;28;20033;-84
2022/03/25 09:27:03;;;;;;;33.80;17.08;;;;;;;10.79;66.98;101609.09;5042170;28;20495;-84
2022/03/25 09:29:28;;;;;;;33.17;17.08;;;;;;;11.03;64.97;101597.25;5043408;28;20029;-84
2022/03/25 09:31:54;;;;;;;30.00;16.33;;;;;;;11.23;60.99;101605.97;5042717;28;20029;-84
2022/03/25 09:37:04;;;;;;;29.10;15.10;;;;;;;11.60;57.84;101612.66;5044067;28;20027;-83
2022/03/25 09:39:29;;;;;;;27.98;15.30;;;;;;;11.66;55.91;101617.03;5041352;28;20128;-84
2022/03/25 09:41:56;;;;;;;33.85;16.85;;;;;;;11.64;55.77;101611.72;5041657;28;20021;-84
2022/03/25 09:44:21;;;;;;;29.50;14.82;;;;;;;11.82;53.51;101610.59;5042590;28;20029;-84
2022/03/25 09:46:49;;;;;;;30.38;15.48;;;;;;;12.00;53.50;101615.69;5042492;28;20379;-84
2022/03/25 09:49:18;;;;;;;29.02;14.45;;;;;;;12.20;52.85;101622.56;5038931;28;20032;-82
2022/03/25 09:51:44;;;;;;;25.00;14.57;;;;;;;12.51;51.47;101616.72;5037862;28;20048;-83
2022/03/25 09:54:12;;;;;;;28.17;15.05;;;;;;;12.69;51.88;101626.22;5037704;28;20025;-84
2022/03/25 09:56:38;;;;;;;27.08;14.25;;;;;;;13.01;49.29;101626.56;5038806;28;20021;-84
2022/03/25 09:59:04;;;;;;;28.95;15.65;;;;;;;12.78;51.35;101630.53;5041147;28;20022;-84
2022/03/25 10:01:29;;;;;;;28.48;13.90;;;;;;;13.56;55.53;101627.28;5041071;28;20398;-83
2022/03/25 10:03:55;;;;;;;24.42;12.82;;;;;;;14.01;47.74;101628.13;5040546;28;20028;-84
2022/03/25 10:06:20;;;;;;;29.70;13.70;;;;;;;14.10;44.21;101627.03;5042982;28;20084;-83
2022/03/25 10:08:56;;;;;;;24.90;12.15;;;;;;;14.53;45.95;101627.81;5041267;28;20041;-84
2022/03/25 10:11:32;;;;;;;24.38;13.43;;;;;;;14.60;41.86;101632.09;5041635;28;20029;-84
2022/03/25 10:14:28;;;;;;;26.30;13.35;;;;;;;15.27;46.58;101623.19;5042491;28;20021;-83
2022/03/25 10:16:54;;;;;;;25.42;14.50;;;;;;;15.78;43.22;101628.00;5042557;28;20028;-83
2022/03/25 10:19:22;;;;;;;28.73;14.02;;;;;;;15.30;42.17;101624.00;5043123;28;20025;-83
2022/03/25 10:21:52;;;;;;;31.63;15.32;;;;;;;15.51;43.17;101624.28;5040684;28;20064;-84
2022/03/25 10:24:35;;;;;;;31.45;16.08;;;;;;;15.04;43.50;101620.25;5041792;28;20034;-83
2022/03/25 10:27:06;;;;;;;28.38;15.38;;;;;;;15.88;43.21;101620.50;5036323;28;20025;-83
2022/03/25 10:29:35;;;;;;;33.17;17.88;;;;;;;15.05;40.11;101619.28;5039734;28;20017;-83
2022/03/25 10:32:04;;;;;;;33.30;16.25;;;;;;;14.70;41.23;101618.41;5040608;28;20025;-82
2022/03/25 10:34:29;;;;;;;33.22;16.75;;;;;;;15.52;41.72;101620.66;5055514;22;20071;-78
2022/03/25 10:37:03;;;;;;;32.67;17.85;;;;;;;15.67;40.54;101620.28;5057420;28;20033;-78
2022/03/25 10:39:29;;;;;;;32.83;18.48;;;;;;;15.91;42.83;101621.31;5056649;28;20078;-79
2022/03/25 10:41:59;;;;;;;35.80;18.20;;;;;;;15.97;41.28;101626.53;5057659;28;20024;-79
2022/03/25 10:44:38;;;;;;;30.35;18.25;;;;;;;15.83;41.52;101626.06;5060065;28;20025;-79
2022/03/25 10:47:15;;;;;;;30.13;17.02;;;;;;;16.31;40.59;101624.56;5059800;28;20053;-79
2022/03/25 10:49:46;;;;;;;32.47;17.65;;;;;;;16.43;38.98;101625.09;5058117;28;20363;-78
2022/03/25 10:52:34;;;;;;;36.28;17.70;;;;;;;16.79;39.32;101618.50;5057561;28;20027;-78
2022/03/25 10:55:19;;;;;;;33.78;18.15;;;;;;;16.21;40.27;101619.53;5057211;28;20032;-78
2022/03/25 10:57:56;;;;;;;33.05;18.08;;;;;;;16.41;38.87;101614.38;5056080;28;20147;-78
2022/03/25 11:00:23;;;;;;;30.30;17.52;;;;;;;16.62;39.52;101624.50;5056043;28;20021;-78
2022/03/25 11:02:49;;;;;;;31.98;17.73;;;;;;;16.77;40.55;101625.78;5057593;28;20028;-78
2022/03/25 11:05:15;;;;;;;37.47;17.88;;;;;;;16.82;40.04;101628.31;5057734;28;20025;-79
2022/03/25 11:07:43;;;;;;;30.92;17.85;;;;;;;17.30;39.05;101621.22;5056302;28;20025;-79
2022/03/25 11:10:12;;;;;;;33.65;17.75;;;;;;;17.26;38.69;101626.78;5055923;28;20032;-78
2022/03/25 11:12:41;;;;;;;35.92;18.83;;;;;;;17.27;39.54;101618.63;5057798;28;20021;-79
2022/03/25 11:15:09;;;;;;;32.47;17.88;;;;;;;17.09;39.58;101629.13;5056089;28;20021;-78